sensor_id;sensor_type;location;lat;lon;timestamp;pressure;altitude;pressure_sealevel;temperature;humidity
47082;BME280;33066;49.296;14.470;2024-01-11T00:00:50;98098.06;;;-0.71;27.73
47082;BME280;33066;49.296;14.470;2024-01-11T00:03:16;98100.09;;;-0.54;27.63
47082;BME280;33066;49.296;14.470;2024-01-11T00:05:42;98099.92;;;-0.77;27.65
47082;BME280;33066;49.296;14.470;2024-01-11T00:08:07;98096.30;;;-0.83;27.64
47082;BME280;33066;49.296;14.470;2024-01-11T00:10:32;98087.56;;;-0.68;27.54
47082;BME280;33066;49.296;14.470;2024-01-11T00:12:57;98087.60;;;-0.62;27.54
47082;BME280;33066;49.296;14.470;2024-01-11T00:15:23;98091.42;;;-0.75;27.45
47082;BME280;33066;49.296;14.470;2024-01-11T00:17:48;98092.07;;;-0.61;27.32
47082;BME280;33066;49.296;14.470;2024-01-11T00:20:14;98093.53;;;-0.62;27.35
47082;BME280;33066;49.296;14.470;2024-01-11T00:22:39;98089.34;;;-0.97;27.31
47082;BME280;33066;49.296;14.470;2024-01-11T00:25:05;98082.13;;;-1.08;27.47
47082;BME280;33066;49.296;14.470;2024-01-11T00:27:31;98084.05;;;-0.64;27.32
47082;BME280;33066;49.296;14.470;2024-01-11T00:29:56;98084.67;;;-0.87;27.21
47082;BME280;33066;49.296;14.470;2024-01-11T00:32:22;98085.06;;;-0.54;27.13
47082;BME280;33066;49.296;14.470;2024-01-11T00:34:47;98087.37;;;-0.86;27.09
47082;BME280;33066;49.296;14.470;2024-01-11T00:37:12;98086.26;;;-0.94;27.26
47082;BME280;33066;49.296;14.470;2024-01-11T00:39:37;98083.90;;;-0.75;27.26
47082;BME280;33066;49.296;14.470;2024-01-11T00:42:03;98083.75;;;-0.80;27.16
47082;BME280;33066;49.296;14.470;2024-01-11T00:44:28;98082.65;;;-0.86;27.19
47082;BME280;33066;49.296;14.470;2024-01-11T00:46:53;98082.87;;;-0.97;27.30
47082;BME280;33066;49.296;14.470;2024-01-11T00:49:19;98087.08;;;-1.25;27.27
47082;BME280;33066;49.296;14.470;2024-01-11T00:51:45;98093.45;;;-1.15;27.35
47082;BME280;33066;49.296;14.470;2024-01-11T00:54:10;98093.90;;;-1.08;27.32
47082;BME280;33066;49.296;14.470;2024-01-11T00:56:36;98093.74;;;-0.90;27.12
47082;BME280;33066;49.296;14.470;2024-01-11T00:59:01;98093.46;;;-0.99;27.36
47082;BME280;33066;49.296;14.470;2024-01-11T01:01:26;98100.04;;;-1.07;27.47
47082;BME280;33066;49.296;14.470;2024-01-11T01:03:51;98106.57;;;-1.02;27.33
47082;BME280;33066;49.296;14.470;2024-01-11T01:06:16;98108.03;;;-1.22;27.43
47082;BME280;33066;49.296;14.470;2024-01-11T01:08:42;98107.33;;;-1.14;27.20
47082;BME280;33066;49.296;14.470;2024-01-11T01:11:08;98103.98;;;-1.12;27.19
47082;BME280;33066;49.296;14.470;2024-01-11T01:13:33;98105.26;;;-0.93;26.99
47082;BME280;33066;49.296;14.470;2024-01-11T01:15:59;98105.54;;;-1.04;27.07
47082;BME280;33066;49.296;14.470;2024-01-11T01:18:25;98104.39;;;-1.00;27.22
47082;BME280;33066;49.296;14.470;2024-01-11T01:20:50;98097.98;;;-0.95;27.09
47082;BME280;33066;49.296;14.470;2024-01-11T01:23:16;98101.43;;;-1.20;27.07
47082;BME280;33066;49.296;14.470;2024-01-11T01:25:41;98105.53;;;-0.90;27.03
47082;BME280;33066;49.296;14.470;2024-01-11T01:28:06;98107.47;;;-0.99;26.96
47082;BME280;33066;49.296;14.470;2024-01-11T01:30:31;98107.73;;;-1.06;27.11
47082;BME280;33066;49.296;14.470;2024-01-11T01:32:56;98101.14;;;-1.08;27.20
47082;BME280;33066;49.296;14.470;2024-01-11T01:35:22;98099.78;;;-1.07;27.16
47082;BME280;33066;49.296;14.470;2024-01-11T01:37:47;98098.73;;;-1.11;27.10
47082;BME280;33066;49.296;14.470;2024-01-11T01:40:13;98099.64;;;-1.24;27.13
47082;BME280;33066;49.296;14.470;2024-01-11T01:42:42;98095.82;;;-1.52;27.11
47082;BME280;33066;49.296;14.470;2024-01-11T01:45:05;98096.70;;;-1.26;27.16
47082;BME280;33066;49.296;14.470;2024-01-11T01:47:29;98093.40;;;-1.06;27.07
47082;BME280;33066;49.296;14.470;2024-01-11T01:49:55;98095.16;;;-1.27;27.02
47082;BME280;33066;49.296;14.470;2024-01-11T01:52:21;98095.26;;;-1.21;26.95
47082;BME280;33066;49.296;14.470;2024-01-11T01:54:46;98089.65;;;-1.19;26.90
47082;BME280;33066;49.296;14.470;2024-01-11T01:57:11;98089.72;;;-1.20;26.79
47082;BME280;33066;49.296;14.470;2024-01-11T01:59:36;98090.84;;;-1.46;27.03
47082;BME280;33066;49.296;14.470;2024-01-11T02:02:02;98082.89;;;-1.31;27.06
47082;BME280;33066;49.296;14.470;2024-01-11T02:04:28;98079.67;;;-1.43;26.99
47082;BME280;33066;49.296;14.470;2024-01-11T02:06:53;98076.33;;;-1.66;27.10
47082;BME280;33066;49.296;14.470;2024-01-11T02:09:19;98077.20;;;-1.45;26.99
47082;BME280;33066;49.296;14.470;2024-01-11T02:11:45;98078.22;;;-1.51;26.87
47082;BME280;33066;49.296;14.470;2024-01-11T02:14:10;98076.26;;;-1.28;26.96
47082;BME280;33066;49.296;14.470;2024-01-11T02:16:35;98069.42;;;-1.55;27.00
47082;BME280;33066;49.296;14.470;2024-01-11T02:19:00;98066.37;;;-1.63;27.05
47082;BME280;33066;49.296;14.470;2024-01-11T02:21:27;98062.92;;;-1.67;27.03
47082;BME280;33066;49.296;14.470;2024-01-11T02:26:16;98058.73;;;-1.79;27.06
47082;BME280;33066;49.296;14.470;2024-01-11T02:28:45;98057.88;;;-1.82;27.19
47082;BME280;33066;49.296;14.470;2024-01-11T02:31:08;98058.91;;;-1.35;27.12
47082;BME280;33066;49.296;14.470;2024-01-11T02:33:33;98056.39;;;-1.55;27.15
47082;BME280;33066;49.296;14.470;2024-01-11T02:35:59;98057.40;;;-1.87;27.07
47082;BME280;33066;49.296;14.470;2024-01-11T02:38:24;98061.78;;;-1.55;27.10
47082;BME280;33066;49.296;14.470;2024-01-11T02:40:50;98064.28;;;-1.55;27.12
47082;BME280;33066;49.296;14.470;2024-01-11T02:43:14;98061.92;;;-1.52;27.12
47082;BME280;33066;49.296;14.470;2024-01-11T02:45:40;98053.18;;;-1.66;27.08
47082;BME280;33066;49.296;14.470;2024-01-11T02:48:06;98052.98;;;-1.48;27.11
47082;BME280;33066;49.296;14.470;2024-01-11T02:50:32;98055.26;;;-1.77;27.22
47082;BME280;33066;49.296;14.470;2024-01-11T02:52:57;98058.06;;;-1.51;27.22
47082;BME280;33066;49.296;14.470;2024-01-11T02:55:22;98058.52;;;-1.47;27.21
47082;BME280;33066;49.296;14.470;2024-01-11T02:57:48;98058.47;;;-1.26;27.20
47082;BME280;33066;49.296;14.470;2024-01-11T03:00:14;98059.99;;;-1.27;27.26
47082;BME280;33066;49.296;14.470;2024-01-11T03:02:38;98057.39;;;-1.46;27.14
47082;BME280;33066;49.296;14.470;2024-01-11T03:05:04;98053.97;;;-1.71;27.22
47082;BME280;33066;49.296;14.470;2024-01-11T03:07:30;98042.46;;;-1.70;27.14
47082;BME280;33066;49.296;14.470;2024-01-11T03:09:56;98032.70;;;-1.49;27.24
47082;BME280;33066;49.296;14.470;2024-01-11T03:12:21;98030.57;;;-1.63;27.17
47082;BME280;33066;49.296;14.470;2024-01-11T03:14:46;98035.36;;;-1.46;27.01
47082;BME280;33066;49.296;14.470;2024-01-11T03:17:11;98033.89;;;-1.71;27.09
47082;BME280;33066;49.296;14.470;2024-01-11T03:19:39;98029.67;;;-1.72;27.16
47082;BME280;33066;49.296;14.470;2024-01-11T03:22:03;98033.30;;;-1.53;27.25
47082;BME280;33066;49.296;14.470;2024-01-11T03:24:28;98031.40;;;-1.75;27.37
47082;BME280;33066;49.296;14.470;2024-01-11T03:26:54;98024.02;;;-1.30;27.28
47082;BME280;33066;49.296;14.470;2024-01-11T03:29:20;98024.16;;;-1.79;27.34
47082;BME280;33066;49.296;14.470;2024-01-11T03:31:45;98024.87;;;-1.64;27.33
47082;BME280;33066;49.296;14.470;2024-01-11T03:34:11;98022.24;;;-1.71;27.32
47082;BME280;33066;49.296;14.470;2024-01-11T03:36:36;98024.29;;;-1.94;27.36
47082;BME280;33066;49.296;14.470;2024-01-11T03:39:02;98018.44;;;-1.93;27.19
47082;BME280;33066;49.296;14.470;2024-01-11T03:41:27;98022.04;;;-1.77;27.01
47082;BME280;33066;49.296;14.470;2024-01-11T03:43:52;98024.23;;;-1.77;26.96
47082;BME280;33066;49.296;14.470;2024-01-11T03:46:18;98020.02;;;-1.52;27.11
47082;BME280;33066;49.296;14.470;2024-01-11T03:48:44;98018.18;;;-1.95;27.07
47082;BME280;33066;49.296;14.470;2024-01-11T03:51:09;98014.92;;;-1.90;26.89
47082;BME280;33066;49.296;14.470;2024-01-11T03:53:35;98018.49;;;-1.42;26.68
47082;BME280;33066;49.296;14.470;2024-01-11T03:56:00;98024.78;;;-1.67;26.72
47082;BME280;33066;49.296;14.470;2024-01-11T03:58:25;98022.22;;;-1.65;26.95
47082;BME280;33066;49.296;14.470;2024-01-11T04:00:50;98019.93;;;-1.52;26.83
47082;BME280;33066;49.296;14.470;2024-01-11T04:03:15;98021.75;;;-1.50;26.90
47082;BME280;33066;49.296;14.470;2024-01-11T04:05:41;98024.66;;;-1.75;26.93
47082;BME280;33066;49.296;14.470;2024-01-11T04:08:07;98025.24;;;-1.72;26.89
47082;BME280;33066;49.296;14.470;2024-01-11T04:13:01;98033.52;;;-1.23;26.30
47082;BME280;33066;49.296;14.470;2024-01-11T04:15:27;98029.36;;;-0.91;26.30
47082;BME280;33066;49.296;14.470;2024-01-11T04:17:52;98030.46;;;-1.17;26.42
47082;BME280;33066;49.296;14.470;2024-01-11T04:20:17;98033.58;;;-1.41;26.42
47082;BME280;33066;49.296;14.470;2024-01-11T04:22:42;98031.50;;;-1.57;26.24
47082;BME280;33066;49.296;14.470;2024-01-11T04:25:08;98035.88;;;-1.69;26.04
47082;BME280;33066;49.296;14.470;2024-01-11T04:27:33;98045.28;;;-1.96;26.11
47082;BME280;33066;49.296;14.470;2024-01-11T04:29:59;98046.84;;;-1.91;26.67
47082;BME280;33066;49.296;14.470;2024-01-11T04:32:24;98040.90;;;-2.05;26.87
47082;BME280;33066;49.296;14.470;2024-01-11T04:34:50;98032.13;;;-1.92;27.01
47082;BME280;33066;49.296;14.470;2024-01-11T04:37:15;98027.67;;;-1.98;26.79
47082;BME280;33066;49.296;14.470;2024-01-11T04:39:40;98025.98;;;-2.28;26.61
47082;BME280;33066;49.296;14.470;2024-01-11T04:42:06;98027.24;;;-1.76;26.67
47082;BME280;33066;49.296;14.470;2024-01-11T04:44:32;98029.28;;;-2.22;26.73
47082;BME280;33066;49.296;14.470;2024-01-11T04:46:57;98030.60;;;-2.18;26.73
47082;BME280;33066;49.296;14.470;2024-01-11T04:49:23;98034.39;;;-2.13;26.72
47082;BME280;33066;49.296;14.470;2024-01-11T04:51:48;98029.79;;;-2.04;26.76
47082;BME280;33066;49.296;14.470;2024-01-11T04:54:13;98025.29;;;-2.01;26.40
47082;BME280;33066;49.296;14.470;2024-01-11T04:56:39;98029.16;;;-1.78;26.36
47082;BME280;33066;49.296;14.470;2024-01-11T04:59:04;98034.57;;;-1.87;26.42
47082;BME280;33066;49.296;14.470;2024-01-11T05:01:29;98037.27;;;-1.91;26.50
47082;BME280;33066;49.296;14.470;2024-01-11T05:03:55;98037.38;;;-1.65;26.63
47082;BME280;33066;49.296;14.470;2024-01-11T05:06:22;98038.08;;;-1.73;26.58
47082;BME280;33066;49.296;14.470;2024-01-11T05:08:47;98036.07;;;-2.04;27.21
47082;BME280;33066;49.296;14.470;2024-01-11T05:11:16;98036.27;;;-2.03;27.04
47082;BME280;33066;49.296;14.470;2024-01-11T05:13:37;98027.80;;;-1.83;26.60
47082;BME280;33066;49.296;14.470;2024-01-11T05:16:03;98025.08;;;-1.94;26.60
47082;BME280;33066;49.296;14.470;2024-01-11T05:18:28;98024.30;;;-2.14;27.00
47082;BME280;33066;49.296;14.470;2024-01-11T05:20:53;98029.04;;;-1.87;26.84
47082;BME280;33066;49.296;14.470;2024-01-11T05:23:18;98019.71;;;-1.88;26.47
47082;BME280;33066;49.296;14.470;2024-01-11T05:25:43;98011.36;;;-2.22;26.80
47082;BME280;33066;49.296;14.470;2024-01-11T05:28:09;98004.59;;;-2.01;26.64
47082;BME280;33066;49.296;14.470;2024-01-11T05:30:34;98006.49;;;-2.18;26.65
47082;BME280;33066;49.296;14.470;2024-01-11T05:32:59;98020.99;;;-2.20;27.48
47082;BME280;33066;49.296;14.470;2024-01-11T05:35:24;98036.39;;;-1.91;27.95
47082;BME280;33066;49.296;14.470;2024-01-11T05:37:49;98042.82;;;-1.90;27.34
47082;BME280;33066;49.296;14.470;2024-01-11T05:40:14;98048.81;;;-2.22;27.32
47082;BME280;33066;49.296;14.470;2024-01-11T05:42:40;98052.16;;;-2.54;27.51
47082;BME280;33066;49.296;14.470;2024-01-11T05:45:06;98057.67;;;-2.10;28.42
47082;BME280;33066;49.296;14.470;2024-01-11T05:47:30;98056.63;;;-2.29;27.71
47082;BME280;33066;49.296;14.470;2024-01-11T05:49:56;98049.43;;;-2.09;27.10
47082;BME280;33066;49.296;14.470;2024-01-11T05:52:21;98047.83;;;-2.20;27.18
47082;BME280;33066;49.296;14.470;2024-01-11T05:54:47;98055.09;;;-2.27;27.64
47082;BME280;33066;49.296;14.470;2024-01-11T05:57:12;98056.01;;;-2.24;28.71
47082;BME280;33066;49.296;14.470;2024-01-11T05:59:37;98055.67;;;-2.44;27.80
47082;BME280;33066;49.296;14.470;2024-01-11T06:02:03;98050.68;;;-2.13;27.73
47082;BME280;33066;49.296;14.470;2024-01-11T06:04:27;98048.68;;;-2.03;27.80
47082;BME280;33066;49.296;14.470;2024-01-11T06:06:53;98060.69;;;-2.30;27.77
47082;BME280;33066;49.296;14.470;2024-01-11T06:09:18;98068.68;;;-2.13;28.38
47082;BME280;33066;49.296;14.470;2024-01-11T06:11:43;98068.91;;;-2.29;28.28
47082;BME280;33066;49.296;14.470;2024-01-11T06:14:09;98062.53;;;-1.93;27.92
47082;BME280;33066;49.296;14.470;2024-01-11T06:16:35;98068.26;;;-1.87;27.81
47082;BME280;33066;49.296;14.470;2024-01-11T06:19:00;98066.35;;;-1.77;27.56
47082;BME280;33066;49.296;14.470;2024-01-11T06:21:26;98063.75;;;-1.99;27.17
47082;BME280;33066;49.296;14.470;2024-01-11T06:23:51;98059.25;;;-1.77;27.54
47082;BME280;33066;49.296;14.470;2024-01-11T06:26:17;98051.09;;;-2.04;26.97
47082;BME280;33066;49.296;14.470;2024-01-11T06:28:42;98044.89;;;-1.88;26.70
47082;BME280;33066;49.296;14.470;2024-01-11T06:31:09;98040.68;;;-2.27;26.13
47082;BME280;33066;49.296;14.470;2024-01-11T06:33:33;98045.15;;;-2.17;26.19
47082;BME280;33066;49.296;14.470;2024-01-11T06:35:58;98046.46;;;-2.10;26.31
47082;BME280;33066;49.296;14.470;2024-01-11T06:38:24;98065.65;;;-2.68;26.98
47082;BME280;33066;49.296;14.470;2024-01-11T06:40:49;98071.88;;;-2.22;27.44
47082;BME280;33066;49.296;14.470;2024-01-11T06:43:14;98083.39;;;-2.99;26.84
47082;BME280;33066;49.296;14.470;2024-01-11T06:45:39;98081.84;;;-2.21;27.07
47082;BME280;33066;49.296;14.470;2024-01-11T06:48:05;98086.26;;;-2.35;26.84
47082;BME280;33066;49.296;14.470;2024-01-11T06:50:29;98087.57;;;-2.22;27.07
47082;BME280;33066;49.296;14.470;2024-01-11T06:52:55;98082.44;;;-2.15;26.64
47082;BME280;33066;49.296;14.470;2024-01-11T06:55:20;98089.26;;;-2.44;26.28
47082;BME280;33066;49.296;14.470;2024-01-11T06:57:46;98095.42;;;-2.40;26.66
47082;BME280;33066;49.296;14.470;2024-01-11T07:00:11;98097.97;;;-2.24;26.71
47082;BME280;33066;49.296;14.470;2024-01-11T07:02:36;98103.20;;;-2.54;26.20
47082;BME280;33066;49.296;14.470;2024-01-11T07:05:01;98099.21;;;-2.46;26.18
47082;BME280;33066;49.296;14.470;2024-01-11T07:07:26;98102.85;;;-2.46;26.07
47082;BME280;33066;49.296;14.470;2024-01-11T07:09:52;98104.89;;;-2.47;25.97
47082;BME280;33066;49.296;14.470;2024-01-11T07:12:18;98104.44;;;-2.37;26.00
47082;BME280;33066;49.296;14.470;2024-01-11T07:14:43;98108.94;;;-2.38;25.93
47082;BME280;33066;49.296;14.470;2024-01-11T07:17:08;98113.68;;;-2.22;25.91
47082;BME280;33066;49.296;14.470;2024-01-11T07:19:34;98116.60;;;-2.48;26.10
47082;BME280;33066;49.296;14.470;2024-01-11T07:22:00;98121.04;;;-2.49;26.01
47082;BME280;33066;49.296;14.470;2024-01-11T07:24:25;98123.37;;;-2.66;26.03
47082;BME280;33066;49.296;14.470;2024-01-11T07:26:51;98120.94;;;-2.37;26.02
47082;BME280;33066;49.296;14.470;2024-01-11T07:29:16;98120.89;;;-2.04;26.15
47082;BME280;33066;49.296;14.470;2024-01-11T07:31:42;98119.52;;;-2.26;26.09
47082;BME280;33066;49.296;14.470;2024-01-11T07:34:07;98116.04;;;-2.01;25.96
47082;BME280;33066;49.296;14.470;2024-01-11T07:36:32;98124.00;;;-2.26;25.83
47082;BME280;33066;49.296;14.470;2024-01-11T07:38:57;98131.76;;;-2.27;25.87
47082;BME280;33066;49.296;14.470;2024-01-11T07:41:23;98130.36;;;-2.26;25.94
47082;BME280;33066;49.296;14.470;2024-01-11T07:43:49;98129.27;;;-2.42;25.92
47082;BME280;33066;49.296;14.470;2024-01-11T07:46:14;98134.40;;;-2.61;25.78
47082;BME280;33066;49.296;14.470;2024-01-11T07:48:40;98141.74;;;-2.14;25.75
47082;BME280;33066;49.296;14.470;2024-01-11T07:51:05;98141.94;;;-1.90;25.69
47082;BME280;33066;49.296;14.470;2024-01-11T07:53:33;98143.60;;;-2.04;25.77
47082;BME280;33066;49.296;14.470;2024-01-11T07:55:57;98140.15;;;-2.12;25.93
47082;BME280;33066;49.296;14.470;2024-01-11T07:58:22;98141.24;;;-2.04;26.01
47082;BME280;33066;49.296;14.470;2024-01-11T08:00:48;98142.47;;;-2.04;25.96
47082;BME280;33066;49.296;14.470;2024-01-11T08:03:12;98133.47;;;-2.23;25.87
47082;BME280;33066;49.296;14.470;2024-01-11T08:05:38;98128.90;;;-1.92;25.69
47082;BME280;33066;49.296;14.470;2024-01-11T08:08:05;98121.24;;;-1.84;25.64
47082;BME280;33066;49.296;14.470;2024-01-11T08:10:30;98113.86;;;-1.87;25.85
47082;BME280;33066;49.296;14.470;2024-01-11T08:12:55;98104.87;;;-1.92;25.79
47082;BME280;33066;49.296;14.470;2024-01-11T08:15:22;98096.04;;;-2.02;25.67
47082;BME280;33066;49.296;14.470;2024-01-11T08:17:46;98092.05;;;-1.95;26.25
47082;BME280;33066;49.296;14.470;2024-01-11T08:20:12;98088.53;;;-1.80;26.55
47082;BME280;33066;49.296;14.470;2024-01-11T08:22:37;98082.59;;;-1.95;26.25
47082;BME280;33066;49.296;14.470;2024-01-11T08:25:02;98068.59;;;-1.92;26.20
47082;BME280;33066;49.296;14.470;2024-01-11T08:27:27;98059.84;;;-1.84;26.40
47082;BME280;33066;49.296;14.470;2024-01-11T08:29:53;98037.49;;;-1.65;26.27
47082;BME280;33066;49.296;14.470;2024-01-11T08:32:18;98032.34;;;-1.72;26.53
47082;BME280;33066;49.296;14.470;2024-01-11T08:34:43;98036.44;;;-2.06;26.80
47082;BME280;33066;49.296;14.470;2024-01-11T08:37:08;98025.81;;;-1.66;27.23
47082;BME280;33066;49.296;14.470;2024-01-11T08:39:34;97999.10;;;-1.90;27.32
47082;BME280;33066;49.296;14.470;2024-01-11T08:41:59;97994.93;;;-1.98;27.59
47082;BME280;33066;49.296;14.470;2024-01-11T08:44:24;97995.10;;;-1.69;28.29
47082;BME280;33066;49.296;14.470;2024-01-11T08:46:50;97999.73;;;-1.68;28.28
47082;BME280;33066;49.296;14.470;2024-01-11T08:49:16;98021.78;;;-1.48;28.46
47082;BME280;33066;49.296;14.470;2024-01-11T08:51:41;98033.82;;;-1.55;28.67
47082;BME280;33066;49.296;14.470;2024-01-11T08:54:06;98043.20;;;-1.30;29.13
47082;BME280;33066;49.296;14.470;2024-01-11T08:56:31;98036.66;;;-0.74;28.68
47082;BME280;33066;49.296;14.470;2024-01-11T08:58:57;98034.40;;;-1.16;28.78
47082;BME280;33066;49.296;14.470;2024-01-11T09:01:23;98042.41;;;-1.01;28.22
47082;BME280;33066;49.296;14.470;2024-01-11T09:03:48;98034.27;;;-1.07;28.18
47082;BME280;33066;49.296;14.470;2024-01-11T09:06:14;98023.50;;;-0.68;28.14
47082;BME280;33066;49.296;14.470;2024-01-11T09:08:39;98026.00;;;-0.89;27.95
47082;BME280;33066;49.296;14.470;2024-01-11T09:11:04;98041.13;;;-0.22;27.84
47082;BME280;33066;49.296;14.470;2024-01-11T09:13:30;98047.26;;;-0.42;28.12
47082;BME280;33066;49.296;14.470;2024-01-11T09:15:56;98060.91;;;-0.64;28.14
47082;BME280;33066;49.296;14.470;2024-01-11T09:18:21;98056.51;;;-0.47;28.27
47082;BME280;33066;49.296;14.470;2024-01-11T09:20:47;98037.73;;;-0.20;28.07
47082;BME280;33066;49.296;14.470;2024-01-11T09:23:12;98045.52;;;0.20;27.96
47082;BME280;33066;49.296;14.470;2024-01-11T09:25:37;98042.44;;;0.13;27.95
47082;BME280;33066;49.296;14.470;2024-01-11T09:28:03;98052.50;;;0.24;28.06
47082;BME280;33066;49.296;14.470;2024-01-11T09:30:28;98070.80;;;0.41;28.22
47082;BME280;33066;49.296;14.470;2024-01-11T09:32:53;98066.03;;;0.36;28.22
47082;BME280;33066;49.296;14.470;2024-01-11T09:35:18;98051.48;;;0.51;27.89
47082;BME280;33066;49.296;14.470;2024-01-11T09:37:44;98032.87;;;0.76;27.84
47082;BME280;33066;49.296;14.470;2024-01-11T09:40:10;98039.34;;;0.29;28.13
47082;BME280;33066;49.296;14.470;2024-01-11T09:42:35;98048.89;;;0.79;28.23
47082;BME280;33066;49.296;14.470;2024-01-11T09:45:02;98027.24;;;0.61;28.37
47082;BME280;33066;49.296;14.470;2024-01-11T09:47:26;98008.02;;;0.59;28.10
47082;BME280;33066;49.296;14.470;2024-01-11T09:49:53;98002.00;;;0.77;27.98
47082;BME280;33066;49.296;14.470;2024-01-11T09:52:16;97992.96;;;0.69;28.04
47082;BME280;33066;49.296;14.470;2024-01-11T09:54:42;97992.10;;;0.80;28.26
47082;BME280;33066;49.296;14.470;2024-01-11T09:57:07;98008.68;;;0.96;28.25
47082;BME280;33066;49.296;14.470;2024-01-11T09:59:33;98016.81;;;1.11;28.35
47082;BME280;33066;49.296;14.470;2024-01-11T10:01:58;98014.31;;;0.98;28.74
47082;BME280;33066;49.296;14.470;2024-01-11T10:04:24;98013.10;;;1.26;29.16
47082;BME280;33066;49.296;14.470;2024-01-11T10:06:49;98010.09;;;1.21;28.89
47082;BME280;33066;49.296;14.470;2024-01-11T10:09:14;98002.36;;;1.55;29.32
47082;BME280;33066;49.296;14.470;2024-01-11T10:11:40;98009.06;;;1.57;29.17
47082;BME280;33066;49.296;14.470;2024-01-11T10:14:05;98006.82;;;1.51;30.08
47082;BME280;33066;49.296;14.470;2024-01-11T10:16:30;98010.72;;;1.80;29.52
47082;BME280;33066;49.296;14.470;2024-01-11T10:18:56;98036.94;;;1.72;29.90
47082;BME280;33066;49.296;14.470;2024-01-11T10:21:22;98035.11;;;1.85;29.89
47082;BME280;33066;49.296;14.470;2024-01-11T10:23:48;98016.03;;;2.04;29.23
47082;BME280;33066;49.296;14.470;2024-01-11T10:26:15;98011.37;;;2.23;28.59
47082;BME280;33066;49.296;14.470;2024-01-11T10:28:38;98002.62;;;2.47;28.67
47082;BME280;33066;49.296;14.470;2024-01-11T10:31:04;97993.40;;;2.36;28.37
47082;BME280;33066;49.296;14.470;2024-01-11T10:33:29;98007.59;;;2.69;28.09
47082;BME280;33066;49.296;14.470;2024-01-11T10:35:54;98004.26;;;2.36;28.52
47082;BME280;33066;49.296;14.470;2024-01-11T10:38:21;97995.46;;;2.75;28.50
47082;BME280;33066;49.296;14.470;2024-01-11T10:40:45;97990.22;;;2.65;28.08
47082;BME280;33066;49.296;14.470;2024-01-11T10:43:12;97988.97;;;2.71;28.11
47082;BME280;33066;49.296;14.470;2024-01-11T10:45:37;97985.44;;;2.65;28.06
47082;BME280;33066;49.296;14.470;2024-01-11T10:48:03;97996.20;;;2.56;28.52
47082;BME280;33066;49.296;14.470;2024-01-11T10:50:30;97985.02;;;2.90;28.25
47082;BME280;33066;49.296;14.470;2024-01-11T10:53:02;97991.93;;;3.07;28.52
47082;BME280;33066;49.296;14.470;2024-01-11T10:55:18;97988.95;;;3.26;28.53
47082;BME280;33066;49.296;14.470;2024-01-11T10:57:44;97988.76;;;3.45;28.00
47082;BME280;33066;49.296;14.470;2024-01-11T11:00:09;97972.17;;;3.40;28.06
47082;BME280;33066;49.296;14.470;2024-01-11T11:02:34;97964.55;;;3.12;27.83
47082;BME280;33066;49.296;14.470;2024-01-11T11:05:01;97965.53;;;3.46;27.93
47082;BME280;33066;49.296;14.470;2024-01-11T11:07:25;97974.07;;;3.38;28.09
47082;BME280;33066;49.296;14.470;2024-01-11T11:09:51;97960.61;;;3.93;27.81
47082;BME280;33066;49.296;14.470;2024-01-11T11:12:16;97947.15;;;3.73;27.61
47082;BME280;33066;49.296;14.470;2024-01-11T11:14:41;97949.11;;;3.72;27.64
47082;BME280;33066;49.296;14.470;2024-01-11T11:17:07;97947.63;;;3.72;27.62
47082;BME280;33066;49.296;14.470;2024-01-11T11:19:32;97939.04;;;3.88;27.67
47082;BME280;33066;49.296;14.470;2024-01-11T11:21:58;97938.07;;;4.00;27.68
47082;BME280;33066;49.296;14.470;2024-01-11T11:24:24;97944.44;;;4.08;27.71
47082;BME280;33066;49.296;14.470;2024-01-11T11:26:49;97950.55;;;4.15;27.69
47082;BME280;33066;49.296;14.470;2024-01-11T11:29:15;97953.84;;;4.21;27.58
47082;BME280;33066;49.296;14.470;2024-01-11T11:31:43;97946.40;;;4.21;27.66
47082;BME280;33066;49.296;14.470;2024-01-11T11:34:05;97946.71;;;4.20;27.52
47082;BME280;33066;49.296;14.470;2024-01-11T11:36:33;97947.85;;;4.37;27.44
47082;BME280;33066;49.296;14.470;2024-01-11T11:38:57;97944.33;;;4.37;27.17
47082;BME280;33066;49.296;14.470;2024-01-11T11:41:22;97938.31;;;4.70;27.13
47082;BME280;33066;49.296;14.470;2024-01-11T11:43:48;97943.40;;;4.80;27.16
47082;BME280;33066;49.296;14.470;2024-01-11T11:46:14;97950.76;;;4.78;27.20
47082;BME280;33066;49.296;14.470;2024-01-11T11:48:48;97950.23;;;4.75;27.23
47082;BME280;33066;49.296;14.470;2024-01-11T11:51:07;97948.96;;;4.89;27.33
47082;BME280;33066;49.296;14.470;2024-01-11T11:53:31;97945.60;;;5.08;27.16
47082;BME280;33066;49.296;14.470;2024-01-11T11:55:54;97940.54;;;5.41;27.00
47082;BME280;33066;49.296;14.470;2024-01-11T11:58:19;97941.87;;;5.66;26.80
47082;BME280;33066;49.296;14.470;2024-01-11T12:00:46;97936.62;;;5.50;26.74
47082;BME280;33066;49.296;14.470;2024-01-11T12:03:10;97931.24;;;5.55;26.76
47082;BME280;33066;49.296;14.470;2024-01-11T12:05:39;97925.84;;;5.58;26.96
47082;BME280;33066;49.296;14.470;2024-01-11T12:08:01;97922.03;;;5.56;27.28
47082;BME280;33066;49.296;14.470;2024-01-11T12:10:26;97921.66;;;5.70;26.95
47082;BME280;33066;49.296;14.470;2024-01-11T12:12:52;97921.21;;;5.56;26.90
47082;BME280;33066;49.296;14.470;2024-01-11T12:15:17;97914.02;;;5.57;26.90
47082;BME280;33066;49.296;14.470;2024-01-11T12:17:43;97900.21;;;5.69;26.82
47082;BME280;33066;49.296;14.470;2024-01-11T12:20:09;97899.49;;;6.05;27.89
47082;BME280;33066;49.296;14.470;2024-01-11T12:22:34;97891.91;;;6.48;27.25
47082;BME280;33066;49.296;14.470;2024-01-11T12:24:59;97880.38;;;6.27;26.83
47082;BME280;33066;49.296;14.470;2024-01-11T12:27:24;97878.29;;;6.40;26.60
47082;BME280;33066;49.296;14.470;2024-01-11T12:29:50;97867.92;;;6.59;26.32
47082;BME280;33066;49.296;14.470;2024-01-11T12:32:15;97866.01;;;6.71;26.06
47082;BME280;33066;49.296;14.470;2024-01-11T12:34:41;97864.80;;;7.50;25.95
47082;BME280;33066;49.296;14.470;2024-01-11T12:37:06;97859.13;;;7.90;25.60
47082;BME280;33066;49.296;14.470;2024-01-11T12:39:31;97847.23;;;7.73;25.30
47082;BME280;33066;49.296;14.470;2024-01-11T12:41:56;97838.76;;;7.78;25.11
47082;BME280;33066;49.296;14.470;2024-01-11T12:44:21;97832.52;;;7.67;25.12
47082;BME280;33066;49.296;14.470;2024-01-11T12:46:48;97821.36;;;9.25;23.87